Time;durP1;ratioP1;P1;durP2;ratioP2;P2;SDS_P1;SDS_P2;PMS_P1;PMS_P2;Temp;Humidity;BMP_temperature;BMP_pressure;BME280_temperature;BME280_humidity;BME280_pressure;Samples;Min_cycle;Max_cycle;Signal;HPM_P1;HPM_P2
2023/01/01 00:00:16;;;;;;;133.77;68.27;;;6.50;99.90;;;6.42;65.84;96366.97;4986975;28;20446;-56
2023/01/01 00:02:43;;;;;;;139.33;68.30;;;6.50;99.90;;;6.41;66.53;96365.28;4981496;28;20544;-57
2023/01/01 00:05:11;;;;;;;143.27;74.20;;;6.50;99.90;;;6.41;65.86;96365.28;4981896;28;20577;-57
2023/01/01 00:07:39;;;;;;;139.90;72.40;;;6.50;99.90;;;6.39;65.84;96370.56;4981170;28;20483;-56
2023/01/01 00:12:55;;;;;;;129.73;67.67;;;6.50;99.90;;;6.35;66.91;96374.28;4975685;28;21073;-56
2023/01/01 00:15:23;;;;;;;136.57;74.87;;;6.40;99.90;;;6.34;66.33;96380.44;4983951;28;20455;-57
2023/01/01 00:17:50;;;;;;;132.17;71.03;;;6.40;99.90;;;6.34;66.51;96375.19;4986324;28;20473;-57
2023/01/01 00:20:17;;;;;;;420.47;182.97;;;6.40;99.90;;;6.33;66.48;96378.72;4985239;28;20952;-57
2023/01/01 00:22:46;;;;;;;311.93;130.93;;;6.40;99.90;;;6.34;66.55;96382.22;4986916;28;20480;-57
2023/01/01 00:25:14;;;;;;;195.47;89.70;;;6.40;99.90;;;6.35;66.26;96379.50;4984224;28;20498;-57
2023/01/01 00:27:41;;;;;;;195.70;91.90;;;6.50;99.90;;;6.35;66.75;96382.13;4985270;28;20575;-57
2023/01/01 00:30:10;;;;;;;180.30;86.00;;;6.50;99.90;;;6.35;66.03;96382.13;4977504;28;20986;-56
2023/01/01 00:32:37;;;;;;;153.67;78.20;;;6.40;99.90;;;6.35;66.63;96381.25;4979624;28;21012;-55
2023/01/01 00:35:06;;;;;;;147.93;68.70;;;6.40;99.90;;;6.32;66.63;96379.66;4983460;28;20448;-55
2023/01/01 00:37:33;;;;;;;127.60;62.10;;;6.50;99.90;;;6.31;66.32;96380.59;4972880;28;20943;-57
2023/01/01 00:40:02;;;;;;;118.03;61.30;;;6.40;99.90;;;6.31;66.49;96385.81;4983722;28;20518;-56
2023/01/01 00:42:29;;;;;;;115.73;61.43;;;6.40;99.90;;;6.30;66.88;96391.09;4978202;28;20541;-56
2023/01/01 00:44:56;;;;;;;104.67;53.70;;;6.40;99.90;;;6.30;66.65;96394.56;4981916;28;20490;-56
2023/01/01 00:47:23;;;;;;;113.77;56.37;;;6.40;99.90;;;6.27;67.45;96399.94;4976599;28;20483;-56
2023/01/01 00:49:51;;;;;;;120.23;61.73;;;6.40;99.90;;;6.24;67.49;96400.09;4982008;28;21538;-56
2023/01/01 00:52:18;;;;;;;123.77;61.23;;;6.40;99.90;;;6.24;67.25;96397.47;4982569;28;20549;-58
2023/01/01 00:54:45;;;;;;;120.07;60.93;;;6.30;99.90;;;6.23;67.01;96403.63;4980343;28;20514;-57
2023/01/01 00:57:14;;;;;;;126.47;65.10;;;6.30;99.90;;;6.22;67.11;96396.72;4981099;28;20451;-57
2023/01/01 00:59:42;;;;;;;118.07;61.27;;;6.30;99.90;;;6.20;67.21;96402.00;4984641;28;20447;-54
2023/01/01 01:02:10;;;;;;;109.93;57.73;;;6.30;99.90;;;6.18;66.65;96395.16;4976028;28;21003;-57
2023/01/01 01:04:37;;;;;;;131.57;63.60;;;6.30;99.90;;;6.15;66.99;96388.34;4980659;28;20529;-57
2023/01/01 01:07:04;;;;;;;138.73;68.43;;;6.30;99.90;;;6.13;66.60;96384.09;4980194;28;20470;-57
2023/01/01 01:09:31;;;;;;;156.47;76.10;;;6.20;99.90;;;6.12;66.64;96390.22;4978647;28;20448;-57
2023/01/01 01:11:59;;;;;;;126.50;64.73;;;6.30;99.90;;;6.10;66.79;96393.78;4976740;28;20455;-56
2023/01/01 01:14:27;;;;;;;113.87;57.33;;;6.20;99.90;;;6.09;66.98;96397.31;4977231;28;20459;-57
2023/01/01 01:16:55;;;;;;;130.33;63.63;;;6.20;99.90;;;6.08;66.86;96387.78;4972700;28;20549;-57
2023/01/01 01:19:24;;;;;;;115.73;61.23;;;6.20;99.90;;;6.07;66.72;96386.09;4978063;28;20458;-58
2023/01/01 01:21:51;;;;;;;127.70;62.40;;;6.20;99.90;;;6.03;66.92;96375.88;4971191;28;20446;-55
2023/01/01 01:24:19;;;;;;;125.53;59.43;;;6.10;99.90;;;6.03;67.17;96381.09;4982075;28;20871;-54
2023/01/01 01:26:46;;;;;;;121.27;58.20;;;6.10;99.90;;;6.02;66.91;96377.63;4975946;28;20466;-57
2023/01/01 01:29:13;;;;;;;105.83;54.70;;;6.10;99.90;;;6.01;66.77;96372.47;4977612;28;20450;-57
2023/01/01 01:31:42;;;;;;;105.90;54.40;;;6.10;99.90;;;5.99;66.65;96374.31;4977230;28;20454;-58
2023/01/01 01:34:09;;;;;;;122.90;54.57;;;6.10;99.90;;;5.97;66.80;96377.00;4977746;28;20832;-55
2023/01/01 01:36:36;;;;;;;103.87;53.33;;;6.10;99.90;;;5.96;66.74;96379.66;4977796;28;20455;-55
2023/01/01 01:39:04;;;;;;;117.73;56.13;;;6.00;99.90;;;5.93;66.86;96384.13;4977828;28;20582;-55
2023/01/01 01:41:31;;;;;;;118.73;57.37;;;6.10;99.90;;;5.92;66.65;96381.59;4980281;28;20477;-58
2023/01/01 01:43:59;;;;;;;104.47;54.80;;;6.00;99.90;;;5.91;67.27;96387.72;4980490;28;21022;-58
2023/01/01 01:46:33;;;;;;;110.23;54.77;;;6.00;99.90;;;5.88;66.75;96387.88;4979379;28;20881;-55
2023/01/01 01:49:04;;;;;;;90.23;45.67;;;6.00;99.90;;;5.86;67.08;96380.09;4979019;28;20474;-57
2023/01/01 01:51:37;;;;;;;96.47;49.53;;;6.00;99.90;;;5.85;66.82;96382.78;4980242;28;20447;-57
2023/01/01 01:54:07;;;;;;;102.53;48.67;;;6.00;99.90;;;5.83;67.00;96388.09;4977661;28;20529;-58
2023/01/01 01:56:40;;;;;;;89.97;49.23;;;5.90;99.90;;;5.80;66.72;96388.22;4971027;28;20451;-56
2023/01/01 01:59:07;;;;;;;95.90;48.90;;;5.90;99.90;;;5.78;66.72;96395.31;4978849;28;21182;-55
2023/01/01 02:01:35;;;;;;;88.87;49.70;;;5.90;99.90;;;5.75;66.79;96395.44;4977755;28;20459;-58
2023/01/01 02:04:03;;;;;;;96.03;49.27;;;5.90;99.90;;;5.72;66.54;96393.81;4978392;28;20470;-56
2023/01/01 02:06:32;;;;;;;89.40;45.23;;;5.80;99.90;;;5.70;66.91;96384.34;4978798;28;20447;-58
2023/01/01 02:09:02;;;;;;;86.53;47.20;;;5.80;99.90;;;5.67;67.09;96381.88;4978655;28;20462;-57
2023/01/01 02:11:30;;;;;;;81.87;44.10;;;5.80;99.90;;;5.64;67.12;96384.63;4976854;28;20508;-58
2023/01/01 02:13:57;;;;;;;79.13;43.20;;;5.80;99.90;;;5.64;66.92;96389.88;4978052;28;20485;-54
2023/01/01 02:16:27;;;;;;;74.97;42.90;;;5.80;99.90;;;5.62;67.15;96392.53;4975931;28;20466;-56
2023/01/01 02:19:00;;;;;;;83.10;43.10;;;5.80;99.90;;;5.65;67.42;96394.19;4975918;28;20487;-55
2023/01/01 02:21:31;;;;;;;89.80;44.30;;;5.80;99.90;;;5.64;67.16;96388.13;4977116;28;21211;-55
2023/01/01 02:24:32;;;;;;;83.00;42.93;;;5.80;99.90;;;5.64;67.20;96392.47;4977500;28;20823;-54
2023/01/01 02:26:59;;;;;;;93.00;41.80;;;5.70;99.90;;;5.63;67.12;96393.41;4974530;28;20750;-57
2023/01/01 02:29:38;;;;;;;93.13;42.47;;;5.70;99.90;;;5.61;67.51;96396.09;4979762;28;20466;-56
2023/01/01 02:32:09;;;;;;;71.30;39.60;;;5.70;99.90;;;5.58;67.82;96398.84;4981634;28;20570;-58
2023/01/01 02:34:39;;;;;;;81.40;37.57;;;5.70;99.90;;;5.57;66.99;96399.75;4982677;28;20533;-57
2023/01/01 02:37:08;;;;;;;71.33;36.80;;;5.70;99.90;;;5.56;67.25;96403.25;4981212;28;20482;-56
2023/01/01 02:39:37;;;;;;;74.53;37.47;;;5.70;99.90;;;5.53;67.34;96392.97;4979692;28;20994;-58
2023/01/01 02:42:06;;;;;;;61.10;35.00;;;5.70;99.90;;;5.52;66.92;96392.13;4977891;28;20990;-57
2023/01/01 02:44:38;;;;;;;72.53;37.43;;;5.60;99.90;;;5.53;66.97;96395.56;4979801;28;20470;-59
2023/01/01 02:47:14;;;;;;;63.67;37.00;;;5.60;99.90;;;5.52;66.59;96394.75;4981396;28;20474;-56
2023/01/01 02:49:49;;;;;;;62.20;35.00;;;5.60;99.90;;;5.50;67.10;96390.50;4979330;28;20951;-56
2023/01/01 02:52:33;;;;;;;73.83;34.47;;;5.60;99.90;;;5.46;66.87;96389.81;4984425;28;21047;-56
2023/01/01 02:55:03;;;;;;;76.33;34.97;;;5.60;99.90;;;5.42;67.03;96393.47;4975616;28;20455;-56
2023/01/01 02:57:35;;;;;;;70.17;29.07;;;5.50;99.90;;;5.35;66.50;96387.69;4980297;28;20471;-57
2023/01/01 03:03:10;;;;;;;55.90;30.13;;;5.50;99.90;;;5.27;67.41;96392.44;4947034;28;20466;-56
2023/01/01 03:06:21;;;;;;;59.80;34.93;;;5.40;99.90;;;5.25;67.10;96378.63;4973611;28;20478;-58
2023/01/01 03:08:33;;;;;;;67.63;33.00;;;5.40;99.90;;;5.26;67.09;96375.06;4981983;28;20485;-56
2023/01/01 03:11:04;;;;;;;67.47;32.13;;;5.40;99.90;;;5.20;67.05;96362.31;4974235;28;20539;-58
2023/01/01 03:13:36;;;;;;;61.00;32.37;;;5.40;99.90;;;5.28;67.13;96378.44;4982882;28;20478;-57
2023/01/01 03:16:08;;;;;;;66.37;34.83;;;5.40;99.90;;;5.29;67.15;96385.38;4977946;28;20982;-58
2023/01/01 03:18:39;;;;;;;71.13;35.63;;;5.40;99.90;;;5.30;67.33;96392.28;4973091;28;20938;-58
2023/01/01 03:21:06;;;;;;;68.40;33.33;;;5.40;99.90;;;5.25;67.18;96383.84;4979542;28;21344;-58
2023/01/01 03:23:37;;;;;;;64.73;35.03;;;5.40;99.90;;;5.27;67.22;96389.81;4983346;28;21397;-56
2023/01/01 03:26:07;;;;;;;66.80;37.43;;;5.40;99.90;;;5.27;67.12;96389.81;4975115;28;20901;-57
2023/01/01 03:28:36;;;;;;;75.50;35.23;;;5.40;99.90;;;5.24;67.21;96400.38;4972593;28;20471;-59
2023/01/01 03:31:05;;;;;;;85.83;48.33;;;5.40;99.90;;;5.21;67.44;96387.47;4975923;28;20461;-57
2023/01/01 03:33:34;;;;;;;75.47;38.90;;;5.40;99.90;;;5.18;67.27;96387.63;4980207;28;20475;-55
2023/01/01 03:36:04;;;;;;;68.50;37.57;;;5.30;99.90;;;5.18;67.22;96387.63;4978203;28;21278;-56
2023/01/01 03:38:35;;;;;;;83.40;44.20;;;5.30;99.90;;;5.17;67.67;96391.13;4978528;28;20988;-58
2023/01/01 03:41:05;;;;;;;83.73;44.43;;;5.30;99.90;;;5.16;67.60;96392.91;4979682;28;20454;-57
2023/01/01 03:43:38;;;;;;;96.40;44.93;;;5.30;99.90;;;5.15;67.72;96390.38;4984037;28;20486;-57
2023/01/01 03:46:07;;;;;;;115.83;46.77;;;5.30;99.90;;;5.14;67.77;96389.53;4980356;28;20482;-54
2023/01/01 03:48:54;;;;;;;78.97;40.27;;;5.30;99.90;;;5.14;67.53;96389.53;4979950;28;20505;-57
2023/01/01 03:51:25;;;;;;;83.90;41.83;;;5.30;99.90;;;5.14;67.22;96389.53;4979890;28;20813;-57
2023/01/01 03:53:53;;;;;;;79.97;39.87;;;5.30;99.90;;;5.15;67.51;96395.59;4983623;28;20560;-56
2023/01/01 03:56:23;;;;;;;86.63;41.27;;;5.30;99.90;;;5.14;67.71;96396.50;4979222;28;20570;-56
2023/01/01 03:58:53;;;;;;;82.30;43.03;;;5.30;99.90;;;5.12;67.38;96398.34;4979022;28;20855;-56
2023/01/01 04:01:25;;;;;;;86.13;42.77;;;5.30;99.90;;;5.11;67.32;96397.50;4982464;28;20653;-56
2023/01/01 04:03:52;;;;;;;92.40;44.87;;;5.30;99.90;;;5.10;67.54;96394.94;4984440;28;20478;-54
2023/01/01 04:06:19;;;;;;;110.47;51.43;;;5.20;99.90;;;5.08;67.09;96401.97;4979474;28;20546;-53
2023/01/01 04:08:47;;;;;;;95.33;50.90;;;5.20;99.90;;;5.07;67.22;96400.31;4982039;28;20467;-55
2023/01/01 04:14:02;;;;;;;98.00;49.57;;;5.20;99.90;;;5.02;67.44;96403.94;4975553;28;20465;-57
2023/01/01 04:16:31;;;;;;;87.70;46.60;;;5.20;99.90;;;5.02;67.30;96397.91;4976470;28;20467;-58
2023/01/01 04:18:58;;;;;;;98.27;47.90;;;5.20;99.90;;;4.98;68.02;96402.38;4978088;28;20487;-57
2023/01/01 04:21:26;;;;;;;97.50;48.80;;;5.10;99.90;;;4.97;67.32;96397.25;4981631;28;20474;-57
2023/01/01 04:23:53;;;;;;;97.40;47.60;;;5.10;99.90;;;4.96;67.44;96400.78;4980440;28;21270;-57
2023/01/01 04:26:20;;;;;;;84.10;47.13;;;5.10;99.90;;;4.94;67.29;96398.25;4977654;28;20553;-58
2023/01/01 04:28:47;;;;;;;85.87;45.30;;;5.10;99.90;;;4.93;67.45;96400.91;4973420;28;20493;-57
2023/01/01 04:31:15;;;;;;;86.87;45.00;;;5.10;99.90;;;4.89;67.31;96402.78;4980879;28;20454;-55
2023/01/01 04:33:43;;;;;;;89.83;42.63;;;5.00;99.90;;;4.89;67.40;96396.75;4979853;28;20487;-56
2023/01/01 04:36:11;;;;;;;92.80;46.90;;;5.00;99.90;;;4.85;67.28;96396.03;4983044;28;21037;-57
2023/01/01 04:38:38;;;;;;;84.33;42.93;;;5.00;99.90;;;4.82;67.31;96402.22;4978859;28;20490;-56
2023/01/01 04:41:07;;;;;;;109.60;49.13;;;5.00;99.90;;;4.81;67.21;96400.50;4981246;28;20467;-57
2023/01/01 04:43:34;;;;;;;98.00;50.10;;;5.00;99.90;;;4.79;67.52;96398.91;4983598;28;20522;-55
2023/01/01 04:46:02;;;;;;;93.37;48.67;;;4.90;99.90;;;4.76;67.17;96404.25;4979456;28;20513;-55
2023/01/01 04:48:30;;;;;;;107.63;52.10;;;4.90;99.90;;;4.72;67.40;96392.25;4977661;28;20486;-57
2023/01/01 04:51:00;;;;;;;102.57;50.47;;;4.90;99.90;;;4.70;67.45;96394.09;4978979;28;20458;-56
2023/01/01 04:53:30;;;;;;;108.33;51.10;;;4.90;99.90;;;4.66;67.74;96391.63;4979204;28;20483;-55
2023/01/01 04:56:02;;;;;;;100.40;48.60;;;4.90;99.90;;;4.65;67.48;96395.13;4979432;28;20978;-55
2023/01/01 04:58:29;;;;;;;86.03;45.60;;;4.80;99.90;;;4.64;67.78;96393.44;4980517;28;20585;-55
2023/01/01 05:00:57;;;;;;;102.23;48.90;;;4.80;99.90;;;4.63;67.59;96396.97;4980724;28;20470;-57
2023/01/01 05:03:24;;;;;;;107.30;51.60;;;4.80;99.90;;;4.63;67.53;96399.56;4978457;28;20483;-56
2023/01/01 05:06:01;;;;;;;107.00;52.20;;;4.80;99.90;;;4.60;67.73;96402.31;4981723;28;20604;-56
2023/01/01 05:08:29;;;;;;;112.90;51.20;;;4.80;99.90;;;4.58;67.86;96404.09;4978624;28;20491;-55
2023/01/01 05:11:01;;;;;;;108.60;50.17;;;4.80;99.90;;;4.55;68.40;96406.84;4981566;28;20459;-53
2023/01/01 05:13:28;;;;;;;103.20;51.03;;;4.70;99.90;;;4.54;68.21;96418.19;4980718;28;20562;-57
2023/01/01 05:15:55;;;;;;;94.97;48.80;;;4.70;99.90;;;4.55;68.18;96413.81;4980262;28;20517;-56
2023/01/01 05:18:23;;;;;;;107.13;49.00;;;4.70;99.90;;;4.56;67.87;96412.91;4980715;28;20479;-54
2023/01/01 05:20:50;;;;;;;97.93;49.50;;;4.70;99.90;;;4.54;68.01;96415.59;4976827;28;20463;-58
2023/01/01 05:23:20;;;;;;;126.23;52.20;;;4.70;99.90;;;4.54;67.92;96412.13;4980270;28;20565;-57
2023/01/01 05:25:47;;;;;;;112.77;56.47;;;4.70;99.90;;;4.53;67.84;96411.28;4982298;28;20498;-55
2023/01/01 05:28:14;;;;;;;145.80;67.73;;;4.70;99.90;;;4.54;67.89;96412.13;4980935;28;20919;-56
2023/01/01 05:30:41;;;;;;;122.17;60.40;;;4.70;99.90;;;4.54;67.92;96423.41;4976409;28;21100;-58
2023/01/01 05:33:09;;;;;;;135.37;64.33;;;4.70;99.90;;;4.55;67.89;96413.81;4977297;28;20999;-55
2023/01/01 05:35:36;;;;;;;152.77;72.53;;;4.70;99.90;;;4.54;67.93;96413.00;4978066;28;20478;-57
2023/01/01 05:38:03;;;;;;;163.43;78.40;;;4.70;99.90;;;4.54;67.67;96422.53;4978051;28;20479;-57
2023/01/01 05:40:32;;;;;;;146.13;66.10;;;4.70;99.90;;;4.55;67.40;96421.66;4978154;28;20553;-55
2023/01/01 05:42:59;;;;;;;144.37;71.73;;;4.70;99.90;;;4.54;68.06;96420.81;4980680;28;20549;-56
2023/01/01 05:45:26;;;;;;;140.50;63.67;;;4.70;99.90;;;4.51;67.95;96420.94;4977489;28;20550;-55
2023/01/01 05:47:55;;;;;;;143.30;66.10;;;4.70;99.90;;;4.45;68.08;96413.38;4979464;28;20846;-56
2023/01/01 05:50:22;;;;;;;144.33;65.20;;;4.60;99.90;;;4.42;68.02;96423.91;4979661;28;20625;-55
2023/01/01 05:52:49;;;;;;;133.57;64.93;;;4.60;99.90;;;4.42;68.42;96426.53;4980314;28;20478;-57
2023/01/01 05:55:17;;;;;;;142.73;68.07;;;4.60;99.90;;;4.42;68.21;96435.19;4977677;28;20629;-57
2023/01/01 05:57:45;;;;;;;163.77;71.40;;;4.60;99.90;;;4.43;68.02;96430.81;4976725;28;20917;-56
2023/01/01 06:00:14;;;;;;;151.03;70.07;;;4.60;99.90;;;4.43;68.09;96428.19;4977445;28;20454;-56
2023/01/01 06:02:41;;;;;;;152.00;65.13;;;4.60;99.90;;;4.43;68.20;96423.00;4973937;28;20479;-57
2023/01/01 06:05:09;;;;;;;137.40;59.40;;;4.60;99.90;;;4.42;68.20;96426.53;4978660;28;20521;-56
2023/01/01 06:07:37;;;;;;;133.97;65.73;;;4.60;99.90;;;4.43;67.95;96430.81;4974802;28;20545;-57
2023/01/01 06:10:05;;;;;;;142.60;65.77;;;4.60;99.90;;;4.43;68.16;96430.81;4977525;28;20452;-57
2023/01/01 06:12:32;;;;;;;122.50;62.93;;;4.60;99.90;;;4.44;67.79;96433.34;4977895;28;20479;-55
2023/01/01 06:15:01;;;;;;;133.23;61.83;;;4.60;99.90;;;4.44;67.55;96432.50;4980239;28;20477;-57
2023/01/01 06:17:28;;;;;;;116.00;56.07;;;4.60;99.90;;;4.45;67.82;96436.81;4979489;28;20486;-56
2023/01/01 06:19:55;;;;;;;101.87;50.40;;;4.60;99.90;;;4.47;67.43;96443.63;4977454;28;20470;-57
2023/01/01 06:22:22;;;;;;;96.13;48.63;;;4.70;99.90;;;4.57;67.25;96443.25;4978092;28;20975;-57
2023/01/01 06:24:50;;;;;;;101.67;47.73;;;4.70;99.90;;;4.74;67.09;96442.56;4980782;28;20470;-55
2023/01/01 06:27:17;;;;;;;101.07;47.90;;;4.90;99.90;;;4.92;66.82;96446.13;4976138;28;20521;-57
2023/01/01 06:29:44;;;;;;;103.00;47.93;;;5.10;99.90;;;5.14;66.13;96448.66;4977549;28;20463;-57
2023/01/01 06:32:13;;;;;;;95.63;45.30;;;5.30;99.90;;;5.35;65.81;96441.66;4976946;28;20490;-57
2023/01/01 06:34:40;;;;;;;99.43;43.10;;;5.50;99.90;;;5.62;65.33;96449.13;4983112;28;20474;-55
2023/01/01 06:37:07;;;;;;;77.10;40.10;;;5.80;99.90;;;5.91;64.87;96447.78;4980848;28;20474;-57
2023/01/01 06:39:34;;;;;;;73.70;38.20;;;6.00;99.90;;;6.21;64.30;96442.03;4981760;28;20462;-56
2023/01/01 06:42:02;;;;;;;82.73;40.90;;;6.40;99.80;;;6.59;63.84;96452.41;4979717;28;20929;-57
2023/01/01 06:44:29;;;;;;;84.53;39.63;;;6.70;99.50;;;6.94;62.80;96448.00;4981673;28;20501;-55
2023/01/01 06:46:56;;;;;;;94.33;43.00;;;7.10;99.10;;;7.33;61.68;96453.88;4976990;28;20491;-58
2023/01/01 06:49:25;;;;;;;87.83;42.83;;;7.50;98.50;;;7.67;60.92;96447.66;4977920;28;20523;-56
2023/01/01 06:51:52;;;;;;;81.67;44.80;;;7.80;97.90;;;8.03;60.52;96448.34;4982458;28;20544;-57
2023/01/01 06:54:19;;;;;;;95.53;49.30;;;8.10;97.50;;;8.35;59.58;96459.66;4975669;28;20509;-57
2023/01/01 06:56:46;;;;;;;77.77;46.60;;;8.40;96.80;;;8.68;59.64;96452.59;4976650;28;20446;-58
2023/01/01 06:59:14;;;;;;;90.23;48.57;;;8.80;96.60;;;9.03;58.89;96462.78;4975715;28;20888;-55
2023/01/01 07:01:41;;;;;;;83.97;47.93;;;9.10;95.90;;;9.42;58.02;96462.19;4976545;28;20458;-56
2023/01/01 07:04:11;;;;;;;81.93;45.80;;;9.50;95.70;;;9.84;57.59;96459.66;4974152;28;20459;-59
2023/01/01 07:06:40;;;;;;;86.07;43.87;;;9.90;95.00;;;10.27;56.69;96459.56;4977701;28;20852;-54
2023/01/01 07:09:07;;;;;;;92.30;46.10;;;10.30;94.00;;;10.59;56.03;96451.38;4977644;28;20501;-56
2023/01/01 07:11:34;;;;;;;78.90;43.50;;;10.70;93.30;;;10.76;55.33;96459.00;4976726;28;20769;-53
2023/01/01 07:14:01;;;;;;;88.40;46.47;;;10.90;92.50;;;10.92;54.78;96457.97;4979578;28;21010;-56
2023/01/01 07:16:29;;;;;;;84.20;46.47;;;11.10;92.30;;;11.18;55.20;96458.03;4981538;28;20983;-56
2023/01/01 07:18:56;;;;;;;85.87;45.63;;;11.30;92.10;;;11.54;54.18;96453.81;4981404;28;20490;-58
2023/01/01 07:21:28;;;;;;;78.63;47.17;;;11.70;91.40;;;11.95;53.48;96453.56;4982621;28;20477;-57
2023/01/01 07:23:57;;;;;;;86.20;47.13;;;12.10;90.90;;;12.41;52.52;96454.69;4983875;28;20485;-55
2023/01/01 07:26:25;;;;;;;86.87;43.50;;;12.60;90.00;;;12.87;51.21;96456.59;4978380;28;20493;-57
2023/01/01 07:28:52;;;;;;;91.83;46.23;;;13.10;86.90;;;13.28;50.78;96457.88;4982890;28;20493;-59
2023/01/01 07:31:19;;;;;;;93.30;47.70;;;13.50;84.40;;;13.56;49.64;96450.50;4976893;28;20488;-56
2023/01/01 07:33:47;;;;;;;115.67;45.27;;;13.90;81.70;;;13.84;49.44;96463.38;4978913;28;20537;-54
2023/01/01 07:36:14;;;;;;;106.13;45.90;;;14.20;80.70;;;14.04;48.31;96464.44;4978163;28;20628;-58
2023/01/01 07:38:41;;;;;;;106.87;49.10;;;14.50;77.30;;;14.13;46.93;96459.25;4980335;28;20482;-56
2023/01/01 07:41:10;;;;;;;100.87;50.30;;;14.70;73.30;;;14.21;47.16;96468.41;4980953;28;20955;-57
2023/01/01 07:43:37;;;;;;;87.27;40.40;;;14.80;74.00;;;14.28;45.74;96465.13;4976599;28;20514;-57
2023/01/01 07:46:05;;;;;;;84.90;42.50;;;14.80;70.50;;;14.31;46.46;96475.47;4979958;28;20467;-57
2023/01/01 07:48:32;;;;;;;98.77;46.87;;;14.80;70.50;;;14.31;44.95;96472.84;4982476;28;20479;-56
2023/01/01 07:50:59;;;;;;;82.77;43.27;;;14.80;67.80;;;14.39;44.94;96474.00;4979073;28;20841;-57
2023/01/01 07:53:26;;;;;;;97.20;47.40;;;14.80;66.80;;;14.53;45.38;96463.97;4982990;28;20475;-58
2023/01/01 07:55:54;;;;;;;101.67;47.40;;;14.80;67.80;;;14.74;45.21;96457.91;4980908;28;20458;-57
2023/01/01 07:58:22;;;;;;;91.10;50.57;;;14.90;68.80;;;14.92;44.62;96466.16;4979267;28;20975;-55
2023/01/01 08:00:50;;;;;;;104.13;52.10;;;15.00;68.00;;;15.05;44.48;96458.03;4987999;28;20554;-56
2023/01/01 08:03:17;;;;;;;100.30;51.70;;;15.10;67.90;;;15.18;44.03;96461.34;4978024;28;20483;-56
2023/01/01 08:05:44;;;;;;;112.50;52.60;;;15.20;66.70;;;15.34;43.79;96466.19;4982287;28;20461;-57
2023/01/01 08:08:11;;;;;;;101.30;51.90;;;15.30;66.30;;;15.55;43.71;96470.63;4982869;28;20501;-57
2023/01/01 08:10:39;;;;;;;93.57;51.33;;;15.50;65.80;;;15.79;43.19;96480.16;4981040;28;20868;-57
2023/01/01 08:13:07;;;;;;;100.00;49.20;;;15.70;65.10;;;16.04;42.74;96479.69;4980116;28;20537;-56
2023/01/01 08:15:36;;;;;;;115.13;52.50;;;15.90;64.50;;;16.34;42.18;96472.66;4982277;28;20474;-57
2023/01/01 08:18:04;;;;;;;92.33;51.77;;;16.20;63.70;;;16.64;42.09;96474.38;4981270;28;20490;-56
2023/01/01 08:20:32;;;;;;;98.23;51.23;;;16.40;62.90;;;16.83;41.54;96470.91;4977652;28;20452;-58
2023/01/01 08:22:59;;;;;;;89.67;49.20;;;16.60;62.10;;;16.84;41.68;96475.25;4978616;28;21093;-56
2023/01/01 08:25:27;;;;;;;91.60;50.60;;;16.70;61.60;;;16.80;41.01;96476.50;4984320;28;21285;-56
2023/01/01 08:27:54;;;;;;;94.00;49.67;;;16.70;60.50;;;16.78;41.08;96478.47;4988061;28;20515;-56
2023/01/01 08:30:21;;;;;;;97.73;51.50;;;16.70;60.60;;;16.79;41.02;96479.28;4982823;28;20923;-57
2023/01/01 08:32:51;;;;;;;96.23;52.27;;;16.70;60.30;;;16.82;41.28;96479.00;4976704;28;20498;-58
2023/01/01 08:35:18;;;;;;;92.33;51.97;;;16.70;60.30;;;16.84;41.09;96483.22;4979187;28;20510;-55
2023/01/01 08:37:46;;;;;;;89.57;50.93;;;16.70;59.70;;;16.74;41.13;96482.38;4982036;28;20552;-57
2023/01/01 08:40:13;;;;;;;99.23;53.50;;;16.60;59.30;;;16.62;41.17;96470.19;4978184;28;20506;-57
2023/01/01 08:42:40;;;;;;;95.60;53.80;;;16.60;59.80;;;16.69;41.47;96473.16;4977505;28;20481;-56
2023/01/01 08:45:09;;;;;;;96.03;51.20;;;16.60;59.80;;;16.83;41.04;96478.03;4978355;28;20455;-56
2023/01/01 08:47:36;;;;;;;101.83;49.20;;;16.70;59.80;;;17.11;40.61;96475.56;4983207;28;20502;-58
2023/01/01 08:50:06;;;;;;;100.10;49.37;;;16.90;59.30;;;17.36;40.51;96479.44;4974617;28;21041;-56
2023/01/01 08:52:34;;;;;;;95.90;49.67;;;17.10;59.40;;;17.60;40.01;96480.78;4975009;28;20466;-57
2023/01/01 08:55:01;;;;;;;92.77;49.27;;;17.30;59.00;;;17.80;40.34;96478.94;4979669;28;21198;-57
2023/01/01 08:57:31;;;;;;;81.47;46.17;;;17.50;58.30;;;18.01;39.43;96476.09;4975964;28;20572;-58
2023/01/01 08:59:58;;;;;;;84.43;46.83;;;17.70;58.00;;;18.13;39.68;96474.91;4980416;28;20550;-56
2023/01/01 09:02:25;;;;;;;81.30;43.97;;;17.90;57.30;;;18.22;39.12;96476.69;4977669;28;21065;-56
2023/01/01 09:04:52;;;;;;;77.53;43.63;;;18.00;57.40;;;18.30;38.56;96481.28;4981083;28;20470;-55
2023/01/01 09:07:21;;;;;;;83.53;44.93;;;18.00;56.80;;;18.27;37.24;96470.94;4981023;28;20494;-56
2023/01/01 09:09:48;;;;;;;80.87;43.67;;;18.10;54.40;;;18.23;38.76;96470.41;4976018;28;20521;-57
2023/01/01 09:12:16;;;;;;;73.33;42.50;;;18.00;55.80;;;18.34;39.31;96468.50;4983631;28;21006;-56
2023/01/01 09:14:43;;;;;;;72.60;41.60;;;18.10;56.50;;;18.51;38.47;96459.69;4981998;28;20835;-56
2023/01/01 09:17:11;;;;;;;83.13;41.90;;;18.20;56.40;;;18.66;38.68;96453.88;4974825;28;20487;-57
2023/01/01 09:19:38;;;;;;;66.23;39.70;;;18.40;56.20;;;18.80;38.58;96448.81;4982347;28;20517;-55
2023/01/01 09:22:08;;;;;;;66.23;41.93;;;18.50;55.50;;;18.96;37.85;96439.34;4979226;28;20554;-59
2023/01/01 09:24:37;;;;;;;75.43;38.87;;;18.70;55.60;;;19.14;37.65;96428.66;4979722;28;20510;-54
2023/01/01 09:27:04;;;;;;;64.33;38.57;;;18.80;55.40;;;19.34;37.56;96431.97;4978927;28;20493;-55
2023/01/01 09:29:31;;;;;;;66.13;38.77;;;19.00;54.80;;;19.55;36.79;96428.97;4978270;28;20965;-56
2023/01/01 09:31:58;;;;;;;60.30;37.13;;;19.20;53.90;;;19.67;37.15;96425.03;4978299;28;21267;-59
2023/01/01 09:34:26;;;;;;;73.33;40.00;;;19.40;54.50;;;19.84;37.54;96423.28;4977180;28;20996;-58
2023/01/01 09:36:53;;;;;;;72.30;38.20;;;19.50;54.20;;;20.09;36.99;96422.56;4985029;28;20983;-60
2023/01/01 09:39:20;;;;;;;56.00;36.27;;;19.70;53.90;;;20.27;34.31;96417.97;4982450;28;20462;-58
2023/01/01 09:42:17;;;;;;;58.00;34.37;;;19.90;50.30;;;20.36;34.86;96422.34;4985752;28;20979;-56
2023/01/01 09:45:02;;;;;;;59.27;36.60;;;20.00;51.90;;;20.50;35.27;96417.38;4986401;28;20454;-56
2023/01/01 09:47:32;;;;;;;52.47;35.93;;;20.10;52.30;;;20.72;36.22;96422.09;4979266;28;20585;-56
2023/01/01 09:50:01;;;;;;;50.83;33.70;;;20.30;53.00;;;20.98;34.70;96410.44;4983550;28;20521;-56
2023/01/01 09:52:34;;;;;;;58.70;37.60;;;20.50;50.90;;;21.16;33.75;96412.94;4982962;28;20479;-57
2023/01/01 09:55:03;;;;;;;59.23;34.63;;;20.70;49.70;;;21.33;34.90;96416.44;4984426;28;20965;-58
2023/01/01 09:57:32;;;;;;;57.93;37.27;;;20.90;51.20;;;21.55;34.25;96420.31;4983452;28;20570;-56
2023/01/01 09:59:59;;;;;;;58.93;36.57;;;21.10;50.10;;;21.74;34.06;96405.69;4982313;28;20451;-58
2023/01/01 10:02:41;;;;;;;61.90;37.87;;;21.30;50.20;;;21.93;33.50;96408.97;4976989;28;20479;-58
2023/01/01 10:05:18;;;;;;;64.60;36.30;;;21.40;49.60;;;22.08;32.86;96404.56;4985113;28;20501;-58
2023/01/01 10:07:48;;;;;;;60.67;36.73;;;21.60;49.00;;;22.22;32.86;96396.81;4982001;28;21176;-61
2023/01/01 10:10:26;;;;;;;60.00;36.77;;;21.70;48.60;;;22.37;33.64;96397.78;4979791;28;20455;-60
2023/01/01 10:12:57;;;;;;;58.13;36.80;;;21.90;49.90;;;22.68;34.02;96394.22;4981867;28;20485;-56
2023/01/01 10:15:27;;;;;;;52.60;34.70;;;22.10;49.80;;;22.97;32.64;96393.50;4978097;28;20448;-57
2023/01/01 10:17:58;;;;;;;61.57;37.80;;;22.40;48.90;;;23.20;32.66;96388.13;4983394;28;21005;-57
2023/01/01 10:20:26;;;;;;;54.73;36.10;;;22.70;48.90;;;23.54;33.10;96394.84;4979606;28;20880;-56
2023/01/01 10:22:57;;;;;;;57.27;35.33;;;23.00;48.50;;;23.86;32.10;96390.19;4983797;28;20508;-57
2023/01/01 10:25:26;;;;;;;53.07;34.53;;;23.30;48.40;;;24.11;32.56;96392.59;4980044;28;20447;-58
2023/01/01 10:27:58;;;;;;;59.03;34.57;;;23.60;47.90;;;24.27;32.56;96380.78;4983805;28;20499;-57